KTBR/TBR METAR and TAF weather

Enter ICAO airport designator
Station Type Date Time Source
KTBR METAR 2024/04/18 07:15 UTC NOAA

KTBR 180715Z AUTO 20003KT 10SM SCT120 20/17 A3005 RMK AO2 T02000167


Station Type Date Time Source
KTBR Decoded METAR 2024/04/18 07:15 UTC NOAA

Statesboro, Statesboro-Bulloch County Airport, GA, United States (KTBR) 32-28-59N 081-44-14W
Apr 18, 2024 - 03:15 AM EDT / 2024.04.18 0715 UTC
Wind: from the SSW (200 degrees) at 3 MPH (3 KT):0
Visibility: 10 mile(s):0
Sky conditions: partly cloudy
Temperature: 68.0 F (20.0 C)
Dew Point: 62.1 F (16.7 C)
Relative Humidity: 81%
Pressure (altimeter): 30.05 in. Hg (1017 hPa)
ob: KTBR 180715Z AUTO 20003KT 10SM SCT120 20/17 A3005 RMK AO2 T02000167
cycle: 7

Station Type Date Time Source
KTBR TAF UTC NOAA

Error!

Example: see airport list